WetterOnline ( https://www.wetteronline.de )

Wetter aktuell Würzburg

Aktuelles Wetter: Würzburg (272m)

6-stündlich | Neueste Meldungen
Ortszeit Temperatur Wetter
Mo, 03.10. 20:00 12.1° C bewölkt
Mo, 03.10. 14:00 14.0° C bewölkt
Mo, 03.10. 8:00 7.2° C Nebel
Mo, 03.10. 2:00 10.1° C wolkenlos
So, 02.10. 20:00 12.0° C bedeckt
So, 02.10. 14:00 12.7° C leichter Regen
So, 02.10. 8:00 12.3° C leichter Regen
So, 02.10. 2:00 11.7° C leicht bewölkt
Ortszeit Temperatur Wetter
Mo, 03.10. 22:00 10.3° C bewölkt
Mo, 03.10. 21:50 10.3° C bewölkt
Mo, 03.10. 21:40 10.6° C bewölkt
Mo, 03.10. 21:30 10.9° C bedeckt
Mo, 03.10. 21:20 10.9° C bedeckt
Mo, 03.10. 21:10 11.0° C bedeckt
Mo, 03.10. 21:00 11.1° C bewölkt
Mo, 03.10. 20:30 11.4° C bewölkt
Mo, 03.10. 20:00 12.1° C bewölkt
Mo, 03.10. 19:30 12.5° C bewölkt
Mo, 03.10. 19:00 12.7° C bewölkt
Ortszeit Relative Feuchte Sichtweite
Mo, 03.10. 20:00 79% 50 km
Mo, 03.10. 14:00 68% 60 km
Mo, 03.10. 8:00 97% 10 km
Mo, 03.10. 2:00 95% 18 km
So, 02.10. 20:00 93% >70 km
So, 02.10. 14:00 93% 45 km
So, 02.10. 8:00 91% 35 km
So, 02.10. 2:00 91% 55 km
Ortszeit Relative Feuchte Sichtweite
Mo, 03.10. 22:00 88% 45 km
Mo, 03.10. 21:50 88% -
Mo, 03.10. 21:40 86% -
Mo, 03.10. 21:30 85% 45 km
Mo, 03.10. 21:20 85% -
Mo, 03.10. 21:10 85% -
Mo, 03.10. 21:00 84% 50 km
Mo, 03.10. 20:30 82% 50 km
Mo, 03.10. 20:00 79% 50 km
Mo, 03.10. 19:30 76% 55 km
Mo, 03.10. 19:00 77% 55 km
Ortszeit Niederschlagsmenge Niederschlagsart
Mo, 03.10. 20:00 0.1 l/m2 in 12 Std. -
Mo, 03.10. 14:00 0.1 l/m2 in 6 Std. -
Mo, 03.10. 8:00 0.1 l/m2 in 12 Std. -
Mo, 03.10. 2:00 0.1 l/m2 in 6 Std. -
So, 02.10. 20:00 8 l/m2 in 12 Std. Regen
So, 02.10. 14:00 7 l/m2 in 6 Std. Regen
So, 02.10. 8:00 0.1 l/m2 in 12 Std. Regen
So, 02.10. 2:00 0.0 l/m2 in 6 Std. -
Ortszeit Niederschlagsmenge Niederschlagsart
Mo, 03.10. 22:00 0.0 l/m2 in 1 Std. -
Mo, 03.10. 21:50 keine Meldung -
Mo, 03.10. 21:40 keine Meldung -
Mo, 03.10. 21:30 0.0 l/m2 in 1 Std. -
Mo, 03.10. 21:20 keine Meldung -
Mo, 03.10. 21:10 keine Meldung -
Mo, 03.10. 21:00 0.0 l/m2 in 1 Std. -
Mo, 03.10. 20:30 0.0 l/m2 in 1 Std. -
Mo, 03.10. 20:00 0.0 l/m2 in 1 Std. -
Mo, 03.10. 19:30 0.0 l/m2 in 1 Std. -
Mo, 03.10. 19:00 0.0 l/m2 in 1 Std. -
Ortszeit Stärke Spitze Richtung
km/h Bft. km/h Grad Sektor
Mo, 03.10. 20:00 7 2 22 290° W
Mo, 03.10. 14:00 11 2 22 280° W
Mo, 03.10. 8:00 6 1 15 340° N
Mo, 03.10. 2:00 11 2 22 300° NW
So, 02.10. 20:00 7 2 25 300° NW
So, 02.10. 14:00 11 2 32 250° W
So, 02.10. 8:00 14 3 32 240° SW
So, 02.10. 2:00 14 3 36 250° W
Ortszeit Stärke Spitze Richtung
km/h Bft. km/h Grad Sektor
Mo, 03.10. 22:00 2 1 11 250° W
Mo, 03.10. 21:50 2 1 - 250° W
Mo, 03.10. 21:40 4 1 - 270° W
Mo, 03.10. 21:30 6 1 11 290° W
Mo, 03.10. 21:20 6 1 - 290° W
Mo, 03.10. 21:10 7 2 - 300° NW
Mo, 03.10. 21:00 9 2 11 300° NW
Mo, 03.10. 20:30 6 1 9 290° W
Mo, 03.10. 20:00 7 2 11 290° W
Mo, 03.10. 19:30 7 2 11 310° NW
Mo, 03.10. 19:00 7 2 14 290° W
Ortszeit Untergrenze Bedeckung Gattung
total tief tief mittel hoch
Mo, 03.10. 20:00 1500 m 8/8 4/8 - - -
Mo, 03.10. 14:00 1320 m 7/8 7/8 - - -
Mo, 03.10. 8:00 <30 m 2/8 0/8 - - -
Mo, 03.10. 2:00 - 0/8 0/8 - - -
So, 02.10. 20:00 5700 m 8/8 8/8 - - -
So, 02.10. 14:00 360 m 7/8 7/8 - - -
So, 02.10. 8:00 2100 m 7/8 6/8 - - -
So, 02.10. 2:00 1200 m 4/8 4/8 - - -
Ortszeit Bedeckungsgrad in Achtel und Wolkenuntergrenze
Mo, 03.10. 22:00 7(1470m)
Mo, 03.10. 21:50 7(1470m)
Mo, 03.10. 21:40 7
Mo, 03.10. 21:30 8(1470m)
Mo, 03.10. 21:20 8(1470m)
Mo, 03.10. 21:10 8
Mo, 03.10. 21:00 7(1470m) 8(7500m) 8(8400m)
Mo, 03.10. 20:30 7(1470m) 8(7500m) 8(8700m)
Mo, 03.10. 20:00 4(1500m) 8(7500m) 8(9000m)
Mo, 03.10. 19:30 7(1500m) 8(7500m) 8(9000m)
Mo, 03.10. 19:00 7(1500m)
Ortszeit Luftdruck NN (hPa) Tendenz (hPa in 3 Std.)
Mo, 03.10. 20:00 1027 - 0,2
Mo, 03.10. 14:00 1028 - 0,2
Mo, 03.10. 8:00 1028 + 0,9
Mo, 03.10. 2:00 1025 + 1,7
So, 02.10. 20:00 1021 + 1,5
So, 02.10. 14:00 1019 - 0,2
So, 02.10. 8:00 1019 + 0,1
So, 02.10. 2:00 1018 + 2,3
Ortszeit Luftdruck NN (hPa) Tendenz (hPa in 3 Std.)
Mo, 03.10. 22:00 1027 - 0,1
Mo, 03.10. 21:50 1027 keine Meldung
Mo, 03.10. 21:40 1027 keine Meldung
Mo, 03.10. 21:30 1027 - 0,3
Mo, 03.10. 21:20 1027 keine Meldung
Mo, 03.10. 21:10 1027 keine Meldung
Mo, 03.10. 21:00 1027 - 0,4
Mo, 03.10. 20:30 1027 - 0,3
Mo, 03.10. 20:00 1027 - 0,2
Mo, 03.10. 19:30 1027 - 0,3
Mo, 03.10. 19:00 1027 - 0,5
Ortszeit Schneehöhe (cm)
Mo, 03.10. 20:00 0
Mo, 03.10. 14:00 0
Mo, 03.10. 8:00 0
Mo, 03.10. 2:00 0
So, 02.10. 20:00 0
So, 02.10. 14:00 0
So, 02.10. 8:00 0
So, 02.10. 2:00 0
Ortszeit Schneehöhe (cm)
Mo, 03.10. 22:00 0
Mo, 03.10. 21:50 0
Mo, 03.10. 21:40 0
Mo, 03.10. 21:30 0
Mo, 03.10. 21:20 0
Mo, 03.10. 21:10 0
Mo, 03.10. 21:00 0
Mo, 03.10. 20:30 0
Mo, 03.10. 20:00 0
Mo, 03.10. 19:30 0
Mo, 03.10. 19:00 0
Link zu dieser Seite / Seite empfehlen

Das Wetter in ...